Time;durP1;ratioP1;P1;durP2;ratioP2;P2;SDS_P1;SDS_P2;PMS_P1;PMS_P2;Temp;Humidity;BMP_temperature;BMP_pressure;BME280_temperature;BME280_humidity;BME280_pressure;Samples;Min_cycle;Max_cycle;Signal;HPM_P1;HPM_P2
2021/01/17 00:00:58;;;;;;;10.43;5.40;;;;;;;-3.30;88.79;99761.84;1855788;77;25248;-76
2021/01/17 00:03:25;;;;;;;7.00;4.47;;;;;;;-3.29;88.83;99757.96;1807356;78;25892;-76
2021/01/17 00:05:53;;;;;;;6.90;4.80;;;;;;;-3.17;88.59;99751.31;1822358;77;25145;-76
2021/01/17 00:08:20;;;;;;;6.93;5.07;;;;;;;-3.22;88.49;99768.98;1832705;77;25275;-76
2021/01/17 00:10:47;;;;;;;6.77;4.70;;;;;;;-3.25;88.76;99759.62;1786291;80;25699;-76
2021/01/17 00:13:14;;;;;;;6.23;4.57;;;;;;;-3.16;88.61;99763.73;1785500;80;26410;-76
2021/01/17 00:15:42;;;;;;;7.03;4.60;;;;;;;-3.23;88.50;99742.87;1786364;79;25245;-74
2021/01/17 00:18:09;;;;;;;6.80;5.60;;;;;;;-3.27;88.57;99747.65;1775518;80;25171;-74
2021/01/17 00:20:36;;;;;;;8.50;5.40;;;;;;;-3.27;88.57;99747.65;1772805;80;25277;-74
2021/01/17 00:23:04;;;;;;;7.57;5.33;;;;;;;-3.18;88.59;99762.92;1786300;80;26633;-74
2021/01/17 00:25:31;;;;;;;7.63;5.57;;;;;;;-3.15;88.63;99769.72;1785631;80;25187;-74
2021/01/17 00:27:59;;;;;;;8.03;5.23;;;;;;;-3.23;88.48;99755.28;1783889;80;25296;-75
2021/01/17 00:30:29;;;;;;;9.77;6.80;;;;;;;-3.15;88.58;99778.72;1722545;81;25229;-74
2021/01/17 00:32:57;;;;;;;9.57;6.67;;;;;;;-3.15;88.70;99783.45;1751812;81;25274;-74
2021/01/17 00:35:25;;;;;;;8.80;6.17;;;;;;;-3.14;88.51;99790.27;1751742;81;25229;-75
2021/01/17 00:37:55;;;;;;;10.07;7.47;;;;;;;-3.30;87.58;99800.43;1762119;80;25692;-73
2021/01/17 00:40:30;;;;;;;12.03;6.90;;;;;;;-3.25;87.61;99798.20;1855633;76;26904;-74
2021/01/17 00:43:01;;;;;;;9.47;6.70;;;;;;;-3.39;87.26;99801.45;1839264;77;25686;-74
2021/01/17 00:45:28;;;;;;;9.30;7.07;;;;;;;-3.50;86.59;99803.35;1859976;76;25185;-76
2021/01/17 00:47:55;;;;;;;8.97;6.20;;;;;;;-3.59;86.87;99808.22;1863339;76;25308;-77
2021/01/17 00:50:25;;;;;;;10.93;7.53;;;;;;;-3.68;86.14;99819.52;1860116;76;25690;-74
2021/01/17 00:52:55;;;;;;;11.70;6.63;;;;;;;-4.01;84.54;99815.75;1842594;77;25944;-74
2021/01/17 00:55:24;;;;;;;11.97;7.23;;;;;;;-4.01;84.54;99815.75;1837840;76;25236;-73
2021/01/17 00:57:52;;;;;;;11.07;6.27;;;;;;;-4.25;85.06;99801.11;1818926;77;26424;-74
2021/01/17 01:00:22;;;;;;;10.10;6.20;;;;;;;-4.25;85.06;99801.11;1860100;76;25188;-74
2021/01/17 01:02:58;;;;;;;10.10;6.60;;;;;;;-4.33;84.81;99810.64;1873804;76;26860;-74
2021/01/17 01:05:25;;;;;;;10.97;6.93;;;;;;;-4.47;84.61;99824.51;1852326;77;25246;-74
2021/01/17 01:07:52;;;;;;;10.83;6.67;;;;;;;-4.47;84.58;99836.06;1847531;77;26365;-76
2021/01/17 01:10:19;;;;;;;7.30;5.13;;;;;;;-4.58;83.62;99835.34;1858953;76;25935;-75
2021/01/17 01:12:45;;;;;;;8.70;6.23;;;;;;;-4.72;83.42;99824.41;1845300;77;25986;-76
2021/01/17 01:15:13;;;;;;;10.30;6.60;;;;;;;-4.85;83.48;99829.67;1826371;78;26348;-76
2021/01/17 01:17:39;;;;;;;8.73;5.07;;;;;;;-4.91;83.23;99850.28;1826260;78;25894;-76
2021/01/17 01:20:08;;;;;;;5.77;4.17;;;;;;;-5.03;82.25;99829.88;1826408;78;26433;-76
2021/01/17 01:22:34;;;;;;;7.67;4.73;;;;;;;-5.19;80.97;99839.45;1838828;77;26397;-76
2021/01/17 01:25:01;;;;;;;8.13;5.30;;;;;;;-5.31;81.37;99824.17;1798846;77;25960;-76
2021/01/17 01:27:28;;;;;;;8.33;5.07;;;;;;;-5.34;81.32;99834.04;1860009;77;25691;-76
2021/01/17 01:29:54;;;;;;;8.30;5.40;;;;;;;-5.60;79.98;99837.70;1854670;76;26119;-76
2021/01/17 01:32:21;;;;;;;7.80;4.63;;;;;;;-5.86;79.57;99821.23;1860094;77;25736;-76
2021/01/17 01:34:48;;;;;;;7.30;4.83;;;;;;;-5.85;79.64;99841.29;1856763;77;26125;-76
2021/01/17 01:37:15;;;;;;;8.63;4.97;;;;;;;-5.85;79.64;99841.29;1852989;77;25829;-76
2021/01/17 01:39:41;;;;;;;9.07;5.20;;;;;;;-5.90;80.24;99842.59;1860011;77;25596;-76
2021/01/17 01:42:08;;;;;;;9.03;5.73;;;;;;;-6.09;80.56;99834.23;1852453;77;26119;-76
2021/01/17 01:44:35;;;;;;;8.10;5.00;;;;;;;-6.09;80.56;99834.23;1841199;77;26109;-76
2021/01/17 01:47:03;;;;;;;9.20;5.43;;;;;;;-6.14;80.56;99835.97;1826279;78;25687;-76
2021/01/17 01:49:30;;;;;;;10.30;5.63;;;;;;;-6.30;80.57;99833.08;1826437;78;25603;-76
2021/01/17 01:52:00;;;;;;;8.00;4.43;;;;;;;-6.30;80.59;99842.91;1794922;78;25572;-76
2021/01/17 01:54:27;;;;;;;9.67;5.07;;;;;;;-6.30;80.59;99842.91;1793867;80;25559;-76
2021/01/17 01:56:54;;;;;;;9.57;5.33;;;;;;;-6.46;80.66;99831.05;1798103;78;26177;-76
2021/01/17 01:59:21;;;;;;;8.07;5.07;;;;;;;-6.43;81.16;99853.63;1808076;78;25759;-76
2021/01/17 02:01:49;;;;;;;7.63;4.43;;;;;;;-6.43;81.16;99853.63;1793650;79;25902;-76
2021/01/17 02:04:16;;;;;;;7.37;4.80;;;;;;;-6.47;80.74;99852.36;1794051;80;25507;-76
2021/01/17 02:07:16;;;;;;;9.17;5.77;;;;;;;-6.58;80.82;99861.38;1793969;79;26144;-76
2021/01/17 02:09:50;;;;;;;10.20;5.60;;;;;;;-6.57;80.33;99852.83;1811454;78;27466;-76
2021/01/17 02:12:28;;;;;;;8.77;4.90;;;;;;;-6.66;80.54;99855.44;1796790;79;25308;-76
2021/01/17 02:15:11;;;;;;;9.47;5.40;;;;;;;-6.60;80.01;99851.15;1817185;77;26940;-76
2021/01/17 02:17:37;;;;;;;8.10;4.73;;;;;;;-6.71;80.16;99856.29;1783540;80;25242;-75
2021/01/17 02:20:10;;;;;;;8.20;5.03;;;;;;;-6.76;79.69;99869.53;1773954;80;25545;-75
2021/01/17 02:22:58;;;;;;;9.20;4.83;;;;;;;-6.83;79.93;99865.30;1730072;80;25417;-75
2021/01/17 02:25:35;;;;;;;7.57;4.70;;;;;;;-6.84;80.05;99855.91;1803019;77;27490;-76
2021/01/17 02:28:05;;;;;;;8.03;5.00;;;;;;;-6.97;79.70;99856.80;1757219;80;25820;-76
2021/01/17 02:30:35;;;;;;;7.10;4.10;;;;;;;-7.06;79.86;99849.16;1757260;80;25604;-77
2021/01/17 02:33:09;;;;;;;9.70;5.27;;;;;;;-7.17;79.30;99862.83;1733514;80;26013;-76
2021/01/17 02:35:44;;;;;;;8.40;4.80;;;;;;;-7.20;79.72;99850.48;1846736;76;26937;-74
2021/01/17 02:38:25;;;;;;;8.20;5.20;;;;;;;-7.36;79.75;99861.13;1804066;77;25265;-74
2021/01/17 02:41:12;;;;;;;8.13;4.90;;;;;;;-7.38;80.01;99858.58;1845578;76;26791;-76
2021/01/17 02:43:41;;;;;;;9.70;5.10;;;;;;;-7.43;79.93;99869.67;1751948;81;25141;-77
2021/01/17 02:46:08;;;;;;;9.47;5.67;;;;;;;-7.49;80.05;99864.11;1723786;81;25548;-76
2021/01/17 02:48:35;;;;;;;9.33;5.23;;;;;;;-7.52;80.28;99870.09;1731075;80;25568;-76
2021/01/17 02:51:01;;;;;;;11.27;7.03;;;;;;;-7.54;80.31;99870.93;1726945;81;25396;-76
2021/01/17 02:53:44;;;;;;;10.23;5.87;;;;;;;-7.55;80.28;99875.20;1726192;83;25452;-76
2021/01/17 02:56:17;;;;;;;7.43;5.37;;;;;;;-7.59;80.13;99870.95;1697706;83;25835;-74
2021/01/17 02:58:48;;;;;;;9.23;4.53;;;;;;;-7.66;80.01;99869.23;1725911;81;25920;-74
2021/01/17 03:01:25;;;;;;;8.63;5.07;;;;;;;-7.75;79.94;99875.62;1726086;81;25584;-74
2021/01/17 03:03:52;;;;;;;5.80;3.93;;;;;;;-7.84;80.12;99876.47;1725548;81;25610;-74
2021/01/17 03:06:18;;;;;;;6.37;4.43;;;;;;;-7.91;79.80;99877.29;1697564;81;25636;-76
2021/01/17 03:08:45;;;;;;;7.63;5.10;;;;;;;-8.03;79.75;99875.57;1726383;83;25523;-76
2021/01/17 03:11:12;;;;;;;6.73;4.30;;;;;;;-8.13;79.89;99877.25;1725980;81;25420;-76
2021/01/17 03:13:38;;;;;;;8.43;5.23;;;;;;;-8.20;79.77;99882.76;1726037;81;25566;-76
2021/01/17 03:16:06;;;;;;;8.47;5.40;;;;;;;-8.27;79.91;99885.31;1725991;83;25525;-75
2021/01/17 03:18:33;;;;;;;8.53;5.47;;;;;;;-8.34;79.98;99881.89;1726083;81;25618;-76
2021/01/17 03:21:00;;;;;;;7.97;4.93;;;;;;;-8.37;80.16;99883.14;1726210;81;25381;-76
2021/01/17 03:23:27;;;;;;;6.83;3.80;;;;;;;-8.40;80.18;99890.78;1726288;83;25937;-76
2021/01/17 03:25:54;;;;;;;8.17;5.10;;;;;;;-8.42;80.08;99902.69;1722828;83;26008;-75
2021/01/17 03:28:20;;;;;;;8.30;4.50;;;;;;;-8.48;80.24;99898.46;1719721;82;25563;-76
2021/01/17 03:30:47;;;;;;;8.00;5.13;;;;;;;-8.50;80.28;99900.56;1725969;83;25885;-76
2021/01/17 03:33:13;;;;;;;11.03;5.50;;;;;;;-8.56;80.38;99906.90;1726336;81;25511;-76
2021/01/17 03:35:40;;;;;;;9.43;5.70;;;;;;;-8.59;80.45;99902.22;1726302;81;25457;-76
2021/01/17 03:38:07;;;;;;;8.60;5.23;;;;;;;-8.67;80.33;99911.96;1723562;82;25623;-76
2021/01/17 03:40:34;;;;;;;9.23;4.70;;;;;;;-8.75;80.26;99904.27;1725722;81;25568;-76
2021/01/17 03:43:00;;;;;;;8.80;4.47;;;;;;;-8.86;80.02;99909.31;1725932;81;25253;-76
2021/01/17 03:45:27;;;;;;;9.40;5.40;;;;;;;-8.98;79.83;99907.55;1725876;81;25612;-76
2021/01/17 03:47:54;;;;;;;10.00;5.80;;;;;;;-9.13;79.53;99916.38;1725955;81;25568;-76
2021/01/17 03:50:21;;;;;;;9.83;5.63;;;;;;;-9.28;79.42;99930.25;1725691;81;25979;-76
2021/01/17 03:52:47;;;;;;;11.70;5.80;;;;;;;-9.41;79.23;99926.77;1725394;81;25732;-76
2021/01/17 03:55:14;;;;;;;8.20;5.43;;;;;;;-9.54;79.34;99930.47;1725498;81;26032;-76
2021/01/17 03:57:41;;;;;;;9.90;6.20;;;;;;;-9.58;79.39;99935.55;1725608;81;25540;-77
2021/01/17 04:00:09;;;;;;;10.53;6.20;;;;;;;-9.65;79.54;99933.76;1724846;81;25912;-77
2021/01/17 04:02:41;;;;;;;10.30;6.30;;;;;;;-9.70;79.29;99939.67;1725462;81;26003;-76
2021/01/17 04:05:09;;;;;;;9.07;5.23;;;;;;;-9.77;79.41;99946.83;1725177;81;25392;-76
2021/01/17 04:07:36;;;;;;;9.08;5.25;;;;;;;-9.83;79.40;99935.73;1719303;82;25540;-76
2021/01/17 04:10:04;;;;;;;8.10;5.00;;;;;;;-9.87;79.18;99941.19;1725705;81;25735;-76
2021/01/17 04:12:33;;;;;;;9.57;5.80;;;;;;;-9.97;78.92;99938.98;1725593;83;25465;-76
2021/01/17 04:15:00;;;;;;;10.53;6.00;;;;;;;-9.98;79.33;99941.52;1725722;83;25795;-76
2021/01/17 04:17:27;;;;;;;9.27;5.20;;;;;;;-10.07;79.17;99954.56;1725437;81;25521;-76
2021/01/17 04:19:53;;;;;;;9.13;5.40;;;;;;;-10.13;79.16;99946.86;1725602;81;25956;-76
2021/01/17 04:22:20;;;;;;;7.62;4.72;;;;;;;-10.19;79.24;99955.68;1725606;83;25119;-76
2021/01/17 04:24:47;;;;;;;7.62;4.80;;;;;;;-10.29;78.91;99957.28;1725779;82;25385;-75
2021/01/17 04:27:15;;;;;;;9.10;5.03;;;;;;;-10.33;79.23;99963.61;1725361;81;25109;-76
2021/01/17 04:29:42;;;;;;;7.60;4.33;;;;;;;-10.36;79.15;99966.95;1725476;81;25216;-75
2021/01/17 04:32:09;;;;;;;7.62;4.78;;;;;;;-10.46;78.60;99967.25;1713927;82;26111;-76
2021/01/17 04:34:35;;;;;;;7.72;4.72;;;;;;;-10.47;79.06;99967.26;1733520;81;25284;-76
2021/01/17 04:37:02;;;;;;;8.03;4.73;;;;;;;-10.56;78.98;99961.61;1733747;81;25221;-75
2021/01/17 04:39:29;;;;;;;6.58;4.28;;;;;;;-10.59;79.09;99971.77;1733558;82;25968;-76
2021/01/17 04:41:57;;;;;;;5.62;3.37;;;;;;;-10.62;79.11;99966.64;1733536;81;25301;-76
2021/01/17 04:44:34;;;;;;;8.10;5.20;;;;;;;-10.67;78.96;99973.34;1733786;81;25296;-76
2021/01/17 04:47:03;;;;;;;8.18;5.05;;;;;;;-10.74;79.08;99974.95;1733475;81;25784;-76
2021/01/17 04:49:33;;;;;;;8.90;5.25;;;;;;;-10.77;79.03;99975.30;1733581;81;25700;-76
2021/01/17 04:51:59;;;;;;;9.30;4.97;;;;;;;-10.80;79.08;99981.20;1733599;81;25704;-76
2021/01/17 04:54:26;;;;;;;9.10;5.60;;;;;;;-10.85;79.11;99978.59;1733671;82;25735;-76
2021/01/17 04:57:00;;;;;;;8.63;4.87;;;;;;;-10.85;79.13;99982.40;1703073;82;25355;-76
2021/01/17 04:59:38;;;;;;;9.35;5.78;;;;;;;-10.89;79.13;99981.93;1733765;81;25692;-76
2021/01/17 05:02:20;;;;;;;12.35;6.70;;;;;;;-10.92;79.15;99991.20;1733419;81;25318;-75
2021/01/17 05:05:24;;;;;;;13.87;7.53;;;;;;;-10.90;79.14;99986.98;1882064;76;27425;-76
2021/01/17 05:08:11;;;;;;;11.00;6.80;;;;;;;-11.02;79.20;99985.11;1854279;77;25262;-75
2021/01/17 05:10:47;;;;;;;18.20;8.23;;;;;;;-10.98;79.33;99993.21;1849734;76;26893;-75
2021/01/17 05:13:17;;;;;;;14.33;7.25;;;;;;;-11.05;79.17;99986.33;1819905;78;25235;-75
2021/01/17 05:15:44;;;;;;;16.85;8.10;;;;;;;-11.09;79.25;99985.44;1819463;77;25255;-76
2021/01/17 05:18:11;;;;;;;15.08;7.28;;;;;;;-11.17;79.17;99991.23;1819631;77;25279;-75
2021/01/17 05:20:38;;;;;;;10.15;6.37;;;;;;;-11.16;79.25;99987.84;1819859;77;25278;-75
2021/01/17 05:23:10;;;;;;;12.50;6.90;;;;;;;-11.19;79.30;99992.47;1819735;77;25266;-76
2021/01/17 05:25:38;;;;;;;11.18;6.05;;;;;;;-11.18;79.38;99995.43;1819286;77;25788;-76
2021/01/17 05:28:04;;;;;;;11.53;5.78;;;;;;;-11.17;79.25;99999.69;1788132;78;25227;-76
2021/01/17 05:30:31;;;;;;;7.97;4.62;;;;;;;-11.15;79.25;99998.45;1819625;78;25666;-75
2021/01/17 05:32:58;;;;;;;11.22;6.33;;;;;;;-11.22;79.10;99995.80;1819419;77;25752;-75
2021/01/17 05:35:25;;;;;;;11.90;5.72;;;;;;;-11.28;79.17;99996.96;1819756;77;25179;-75
2021/01/17 05:37:54;;;;;;;12.47;6.08;;;;;;;-11.28;79.32;99999.50;1819122;77;25247;-75
2021/01/17 05:40:22;;;;;;;13.20;6.33;;;;;;;-11.30;79.23;100000.32;1806143;78;25274;-75
2021/01/17 05:42:49;;;;;;;12.90;6.42;;;;;;;-11.35;79.24;100005.73;1819319;77;25254;-75
2021/01/17 05:45:21;;;;;;;8.20;4.92;;;;;;;-11.36;79.30;100001.08;1819649;77;25199;-76
2021/01/17 05:47:54;;;;;;;14.43;6.90;;;;;;;-11.41;79.25;100000.13;1819282;78;25286;-75
2021/01/17 05:50:21;;;;;;;13.62;6.80;;;;;;;-11.50;79.30;100007.17;1778097;80;25180;-76
2021/01/17 05:52:57;;;;;;;15.43;7.30;;;;;;;-11.52;79.37;100007.98;1792035;78;25294;-75
2021/01/17 05:55:39;;;;;;;12.95;7.12;;;;;;;-11.58;79.40;100005.78;1756224;81;25310;-76
2021/01/17 05:58:30;;;;;;;9.98;6.30;;;;;;;-11.59;79.54;100012.94;1782649;78;25196;-75
2021/01/17 06:01:17;;;;;;;15.40;7.17;;;;;;;-11.51;79.66;100007.14;1817108;77;26903;-75
2021/01/17 06:03:52;;;;;;;14.23;7.40;;;;;;;-11.59;79.63;100019.28;1788457;80;25604;-75
2021/01/17 06:06:29;;;;;;;11.73;6.47;;;;;;;-11.64;79.54;100016.23;1775997;79;25257;-75
2021/01/17 06:08:58;;;;;;;9.43;5.42;;;;;;;-11.74;79.58;100022.81;1763605;80;25691;-75
2021/01/17 06:11:25;;;;;;;15.05;6.70;;;;;;;-11.78;79.67;100025.71;1757004;81;25219;-75
2021/01/17 06:14:01;;;;;;;12.28;5.95;;;;;;;-11.88;79.67;100021.30;1766338;80;25569;-75
2021/01/17 06:16:41;;;;;;;8.93;5.05;;;;;;;-11.93;79.79;100030.50;1757043;81;25720;-75
2021/01/17 06:19:09;;;;;;;11.12;5.85;;;;;;;-12.01;79.84;100037.97;1757089;80;25223;-76
2021/01/17 06:21:38;;;;;;;12.05;6.00;;;;;;;-12.08;79.95;100034.88;1757038;80;25608;-75
2021/01/17 06:24:09;;;;;;;10.60;6.10;;;;;;;-12.14;79.92;100038.13;1757144;81;25108;-75
2021/01/17 06:26:38;;;;;;;15.35;7.42;;;;;;;-12.19;79.99;100040.13;1757074;81;25358;-75
2021/01/17 06:29:09;;;;;;;8.60;4.75;;;;;;;-12.24;80.02;100046.37;1766897;79;25263;-75
2021/01/17 06:31:36;;;;;;;9.63;5.35;;;;;;;-12.29;80.15;100058.09;1788164;79;25284;-75
2021/01/17 06:34:06;;;;;;;14.05;7.03;;;;;;;-12.37;80.21;100061.72;1786826;79;25201;-75
2021/01/17 06:36:35;;;;;;;9.85;6.28;;;;;;;-12.39;80.23;100068.86;1774348;79;25187;-75
2021/01/17 06:39:02;;;;;;;10.48;5.22;;;;;;;-12.38;80.31;100066.36;1727975;81;25191;-75
2021/01/17 06:41:38;;;;;;;11.10;6.28;;;;;;;-12.38;80.34;100073.96;1757122;80;25621;-75
2021/01/17 06:44:12;;;;;;;9.20;5.58;;;;;;;-12.41;80.31;100073.89;1758184;80;25258;-75
2021/01/17 06:46:45;;;;;;;10.60;6.25;;;;;;;-12.40;80.42;100069.67;1777784;80;25266;-75
2021/01/17 06:49:25;;;;;;;10.80;6.03;;;;;;;-12.43;80.45;100075.93;1757227;81;25292;-75
2021/01/17 06:52:05;;;;;;;11.63;6.90;;;;;;;-12.35;80.55;100085.45;1813071;77;27447;-75
2021/01/17 06:54:34;;;;;;;11.40;6.40;;;;;;;-12.38;80.58;100095.52;1771746;80;25747;-76
2021/01/17 06:57:01;;;;;;;19.92;9.73;;;;;;;-12.32;80.64;100093.52;1759580;80;25647;-75
2021/01/17 06:59:47;;;;;;;21.82;12.47;;;;;;;-12.25;80.56;100105.49;1754659;81;25275;-75
2021/01/17 07:02:32;;;;;;;19.12;10.10;;;;;;;-12.29;80.29;100101.19;1755869;80;25716;-75
2021/01/17 07:05:41;;;;;;;22.27;10.38;;;;;;;-12.26;80.22;100100.00;1768487;80;25706;-76
2021/01/17 07:08:34;;;;;;;17.80;9.38;;;;;;;-12.24;80.15;100107.64;1772956;80;25301;-75
2021/01/17 07:11:13;;;;;;;27.80;14.07;;;;;;;-12.24;79.79;100111.44;1754731;81;25204;-75
2021/01/17 07:13:49;;;;;;;36.60;18.67;;;;;;;-12.27;79.47;100117.70;1874084;76;26923;-75
2021/01/17 07:16:31;;;;;;;65.80;27.00;;;;;;;-12.42;79.50;100124.13;1822765;77;25247;-76
2021/01/17 07:19:03;;;;;;;131.22;46.70;;;;;;;-12.46;79.41;100135.03;1860662;77;25656;-76
2021/01/17 07:21:36;;;;;;;116.17;42.62;;;;;;;-12.49;79.48;100132.84;1847259;77;26077;-76
2021/01/17 07:24:05;;;;;;;55.45;25.35;;;;;;;-12.45;79.59;100131.69;1852209;77;25669;-75
2021/01/17 07:26:38;;;;;;;55.88;24.20;;;;;;;-12.41;79.63;100133.45;1849315;77;25252;-75
2021/01/17 07:29:05;;;;;;;52.20;22.27;;;;;;;-12.35;79.46;100132.34;1833399;77;25662;-75
2021/01/17 07:31:35;;;;;;;50.40;23.40;;;;;;;-12.40;79.26;100142.79;1844701;77;25253;-76
2021/01/17 07:34:09;;;;;;;37.98;20.90;;;;;;;-12.43;79.32;100140.17;1826380;77;25685;-76
2021/01/17 07:36:38;;;;;;;41.88;20.05;;;;;;;-12.49;79.23;100141.29;1846880;77;25244;-76
2021/01/17 07:39:05;;;;;;;32.98;19.10;;;;;;;-12.50;79.33;100140.83;1826397;78;25196;-76
2021/01/17 07:41:35;;;;;;;32.58;16.80;;;;;;;-12.44;79.41;100146.05;1846066;77;25087;-75
2021/01/17 07:44:03;;;;;;;35.30;17.48;;;;;;;-12.35;79.47;100141.22;1826319;78;25071;-76
2021/01/17 07:46:33;;;;;;;33.38;17.50;;;;;;;-12.30;79.43;100144.25;1826319;78;25275;-76
2021/01/17 07:49:03;;;;;;;29.20;15.43;;;;;;;-12.23;79.55;100148.63;1826621;78;25205;-76
2021/01/17 07:51:30;;;;;;;30.95;16.93;;;;;;;-12.15;79.38;100144.59;1826042;77;25269;-76
2021/01/17 07:54:02;;;;;;;27.42;14.58;;;;;;;-12.09;79.42;100148.55;1795073;79;25607;-76
2021/01/17 07:56:34;;;;;;;22.65;12.82;;;;;;;-12.05;79.22;100141.44;1778622;80;25677;-76
2021/01/17 07:59:03;;;;;;;23.27;12.65;;;;;;;-12.03;79.19;100143.62;1750384;80;25731;-76
2021/01/17 08:01:39;;;;;;;26.77;14.03;;;;;;;-12.07;79.11;100149.85;1774515;80;25273;-76
2021/01/17 08:04:12;;;;;;;33.65;17.00;;;;;;;-12.07;79.34;100155.77;1771816;81;25282;-75
2021/01/17 08:06:45;;;;;;;32.13;16.50;;;;;;;-11.99;79.36;100155.95;1755296;80;25325;-75
2021/01/17 08:09:16;;;;;;;29.07;14.98;;;;;;;-11.91;79.34;100163.71;1771762;80;25266;-75
2021/01/17 08:11:59;;;;;;;29.87;14.43;;;;;;;-11.83;79.40;100161.78;1805360;78;25289;-76
2021/01/17 08:14:32;;;;;;;28.00;13.40;;;;;;;-11.73;79.32;100158.15;1789511;80;25134;-75
2021/01/17 08:17:21;;;;;;;26.00;12.82;;;;;;;-11.65;79.20;100158.75;1803155;78;25183;-76
2021/01/17 08:19:57;;;;;;;29.20;14.15;;;;;;;-11.66;79.10;100159.59;1755443;81;25283;-75
2021/01/17 08:22:29;;;;;;;33.55;17.12;;;;;;;-11.68;79.10;100166.33;1764192;80;25356;-75
2021/01/17 08:25:05;;;;;;;36.08;15.70;;;;;;;-11.58;79.10;100163.15;1775132;80;25329;-75
2021/01/17 08:27:39;;;;;;;30.02;13.70;;;;;;;-11.54;78.82;100166.98;1777414;80;25222;-75
2021/01/17 08:30:17;;;;;;;27.20;12.80;;;;;;;-11.53;78.82;100172.52;1785905;79;25273;-75
2021/01/17 08:32:52;;;;;;;21.62;11.35;;;;;;;-11.48;78.92;100169.66;1785749;80;25293;-75
2021/01/17 08:35:25;;;;;;;20.73;11.47;;;;;;;-11.44;78.90;100177.38;1785955;80;25696;-75
2021/01/17 08:38:04;;;;;;;24.07;14.33;;;;;;;-11.43;78.51;100173.15;1783726;80;25444;-75
2021/01/17 08:40:36;;;;;;;21.25;13.13;;;;;;;-11.46;78.25;100177.77;1797593;79;25243;-75
2021/01/17 08:43:06;;;;;;;23.83;13.83;;;;;;;-11.46;78.54;100175.23;1772985;80;25310;-77
2021/01/17 08:45:36;;;;;;;22.45;12.58;;;;;;;-11.45;78.40;100186.23;1773190;80;25314;-75
2021/01/17 08:48:22;;;;;;;22.20;12.57;;;;;;;-11.44;78.59;100195.58;1793039;79;25210;-76
2021/01/17 08:50:57;;;;;;;22.17;13.28;;;;;;;-11.47;78.05;100200.16;1788790;79;26055;-76
2021/01/17 08:53:33;;;;;;;21.60;12.93;;;;;;;-11.44;78.47;100207.00;1758513;81;25379;-76
2021/01/17 08:56:19;;;;;;;25.80;14.63;;;;;;;-11.34;78.21;100206.36;1812164;78;27451;-77
2021/01/17 08:58:49;;;;;;;24.60;14.07;;;;;;;-11.28;78.39;100210.27;1698422;82;25635;-77
2021/01/17 09:01:18;;;;;;;23.20;12.78;;;;;;;-11.20;78.06;100215.09;1731267;81;25370;-77
2021/01/17 09:03:49;;;;;;;25.20;13.50;;;;;;;-11.17;77.99;100216.00;1758277;80;25272;-77
2021/01/17 09:06:27;;;;;;;20.17;11.30;;;;;;;-11.18;77.47;100210.47;1731161;81;26467;-77
2021/01/17 09:09:07;;;;;;;15.77;8.93;;;;;;;-10.99;77.93;100220.17;1811901;78;26899;-76
2021/01/17 09:11:43;;;;;;;18.63;11.30;;;;;;;-10.97;77.85;100222.33;1797802;79;25731;-76
2021/01/17 09:14:29;;;;;;;19.97;9.73;;;;;;;-10.94;77.81;100225.31;1797425;79;25867;-76
2021/01/17 09:17:01;;;;;;;17.03;10.00;;;;;;;-10.89;77.67;100228.41;1790623;79;25387;-78
2021/01/17 09:19:34;;;;;;;19.13;9.63;;;;;;;-10.88;76.74;100233.06;1797686;79;25202;-75
2021/01/17 09:22:07;;;;;;;19.10;10.67;;;;;;;-10.87;77.23;100239.45;1797680;79;25591;-75
2021/01/17 09:24:43;;;;;;;15.73;9.17;;;;;;;-10.72;77.38;100238.88;1804313;77;27417;-77
2021/01/17 09:27:11;;;;;;;17.57;10.10;;;;;;;-10.65;77.23;100233.50;1727919;80;25402;-76
2021/01/17 09:29:41;;;;;;;17.33;9.80;;;;;;;-10.59;77.28;100234.89;1771567;79;25468;-76
2021/01/17 09:32:17;;;;;;;22.07;12.13;;;;;;;-10.42;77.34;100226.67;1889900;76;26823;-76
2021/01/17 09:34:48;;;;;;;19.90;10.53;;;;;;;-10.35;76.87;100243.34;1827327;77;25192;-76
2021/01/17 09:37:18;;;;;;;23.50;10.67;;;;;;;-10.32;76.77;100238.71;1857633;76;25377;-77
2021/01/17 09:39:52;;;;;;;13.80;8.30;;;;;;;-10.27;76.64;100239.64;1858515;76;25413;-77
2021/01/17 09:42:23;;;;;;;16.67;9.73;;;;;;;-10.16;76.33;100238.53;1857992;76;25445;-76
2021/01/17 09:44:56;;;;;;;19.37;11.33;;;;;;;-10.21;76.13;100233.79;1858097;77;25430;-78
2021/01/17 09:47:32;;;;;;;16.27;9.67;;;;;;;-10.19;74.96;100243.14;1812469;78;26689;-76
2021/01/17 09:50:10;;;;;;;17.97;10.40;;;;;;;-10.23;75.98;100248.17;1764349;79;25361;-76
2021/01/17 09:52:51;;;;;;;20.70;11.63;;;;;;;-10.07;76.00;100247.17;1853038;77;26904;-75
2021/01/17 09:55:19;;;;;;;16.27;9.70;;;;;;;-10.03;75.64;100249.34;1788313;79;25292;-78
2021/01/17 09:57:45;;;;;;;18.67;10.73;;;;;;;-9.99;75.05;100253.64;1757156;80;25944;-75
2021/01/17 10:00:22;;;;;;;20.53;11.30;;;;;;;-9.94;75.74;100244.81;1733636;80;25385;-76
2021/01/17 10:02:49;;;;;;;20.30;11.27;;;;;;;-9.86;76.03;100243.67;1756066;81;25578;-76
2021/01/17 10:05:33;;;;;;;18.53;10.23;;;;;;;-9.74;76.12;100250.20;1788408;79;25628;-76
2021/01/17 10:08:09;;;;;;;21.37;12.00;;;;;;;-9.67;75.61;100260.06;1744341;81;25416;-77
2021/01/17 10:10:45;;;;;;;23.00;11.57;;;;;;;-9.65;75.58;100259.66;1818565;78;27302;-77
2021/01/17 10:13:12;;;;;;;21.40;11.77;;;;;;;-9.60;75.61;100256.37;1789316;79;25736;-76
2021/01/17 10:15:42;;;;;;;23.50;13.33;;;;;;;-9.47;75.47;100256.53;1789523;80;25869;-77
2021/01/17 10:20:46;;;;;;;21.40;12.77;;;;;;;-9.24;75.31;100262.78;1817285;77;26809;-75
2021/01/17 10:23:18;;;;;;;28.03;15.17;;;;;;;-9.23;74.91;100264.51;1757885;80;25308;-75
2021/01/17 10:25:44;;;;;;;21.83;12.40;;;;;;;-9.13;74.77;100264.21;1776382;79;25341;-75
2021/01/17 10:28:12;;;;;;;30.70;15.67;;;;;;;-9.04;74.63;100263.03;1778216;79;25595;-77
2021/01/17 10:30:40;;;;;;;23.53;13.53;;;;;;;-8.91;74.63;100271.70;1788296;79;25459;-75
2021/01/17 10:33:17;;;;;;;27.33;14.30;;;;;;;-8.72;73.44;100274.03;1788471;79;25493;-76
2021/01/17 10:35:47;;;;;;;27.27;17.23;;;;;;;-8.74;73.32;100278.27;1785439;80;25532;-76
2021/01/17 10:38:14;;;;;;;27.20;15.70;;;;;;;-8.72;73.24;100284.23;1743345;80;25645;-78
2021/01/17 10:40:42;;;;;;;28.80;15.20;;;;;;;-8.62;73.87;100278.81;1757244;80;25500;-76
2021/01/17 10:43:30;;;;;;;32.37;18.27;;;;;;;-8.53;73.75;100285.70;1757429;80;25545;-76
2021/01/17 10:46:17;;;;;;;31.07;18.00;;;;;;;-8.55;73.37;100289.51;1757595;80;25545;-75
2021/01/17 10:48:49;;;;;;;32.67;17.53;;;;;;;-8.60;73.57;100288.61;1770888;79;25336;-77
2021/01/17 10:51:39;;;;;;;33.93;20.43;;;;;;;-8.45;73.81;100286.64;1815139;76;27443;-76
2021/01/17 10:54:06;;;;;;;29.70;17.00;;;;;;;-8.36;73.45;100289.27;1775628;79;25190;-76
2021/01/17 10:56:33;;;;;;;27.70;16.67;;;;;;;-8.27;73.35;100286.79;1787626;79;25741;-76
2021/01/17 10:59:00;;;;;;;31.20;17.40;;;;;;;-8.34;72.41;100285.03;1787497;79;25513;-77
2021/01/17 11:01:31;;;;;;;30.23;17.07;;;;;;;-8.47;71.70;100290.45;1787652;79;25940;-77
2021/01/17 11:03:59;;;;;;;31.43;14.97;;;;;;;-8.57;72.04;100282.70;1754186;80;25645;-75
2021/01/17 11:06:29;;;;;;;30.30;17.13;;;;;;;-8.62;71.79;100282.21;1768419;79;25625;-75
2021/01/17 11:09:02;;;;;;;30.20;16.50;;;;;;;-8.66;72.68;100284.31;1753154;80;25439;-76
2021/01/17 11:11:30;;;;;;;24.03;14.10;;;;;;;-8.49;73.54;100292.56;1771029;79;25591;-76
2021/01/17 11:14:02;;;;;;;24.40;14.63;;;;;;;-8.49;72.07;100293.84;1758719;80;25498;-76
2021/01/17 11:16:50;;;;;;;27.73;14.87;;;;;;;-8.44;73.24;100297.30;1769171;80;26022;-77
2021/01/17 11:19:39;;;;;;;23.90;13.67;;;;;;;-8.33;71.89;100302.03;1849992;76;26437;-77
2021/01/17 11:22:07;;;;;;;22.87;13.70;;;;;;;-8.36;73.16;100301.15;1819870;77;25279;-76
2021/01/17 11:24:39;;;;;;;22.73;13.83;;;;;;;-8.29;73.28;100307.62;1819914;78;25484;-76
2021/01/17 11:27:12;;;;;;;24.77;14.40;;;;;;;-8.20;72.87;100310.24;1820078;78;25594;-78
2021/01/17 11:29:41;;;;;;;34.13;18.43;;;;;;;-8.24;72.40;100304.69;1820174;77;25537;-76
2021/01/17 11:32:10;;;;;;;31.63;18.67;;;;;;;-8.27;71.60;100302.53;1819605;77;25976;-76
2021/01/17 11:34:42;;;;;;;30.80;18.80;;;;;;;-8.24;72.62;100305.97;1820243;77;26018;-76
2021/01/17 11:37:09;;;;;;;68.30;39.70;;;;;;;-8.20;72.50;100304.30;1815456;77;25492;-75
2021/01/17 11:39:37;;;;;;;60.53;33.27;;;;;;;-8.32;70.98;100301.63;1820238;77;25591;-76